• Join FlightAware (Why Join?)
  • Login
  • US Flag 
03:33PM EST


 

Airport Tracker/Info


-or-


 

Live Flight TrackerFlight Track Log ✈ SKW5516 ✈ 12-Jun-2013 ✈ KDEN - KBOI

Flight Track Log - Related Links

Times and Time Zones

All times are in EDT time to prevent confusion due to time zone crossing. See the SKW5516 flight status page for this flight to view local times or setup timezone preferences in your user account.

Time Position Orientation Groundspeed Altitude Reporting Facility
EDT Latitude Longitude Course Direction KTS MPH feet Rate Location/Type
11:27AM 39.8667 -104.8000 270° West 216 249 7,700  Level Denver TRACON
11:28AM 39.8953 -104.8683 299° West 226 260 9,700 1,680 Climbing Denver Center
11:29AM 39.9150 -104.9633 285° West 274 315 11,200 1,380 Climbing Denver Center
11:30AM 39.9247 -105.0789 276° West 317 365 12,600 1,560 Climbing Denver Center
11:31AM 39.9358 -105.2153 276° West 352 405 14,500 1,860 Climbing Denver Center
11:32AM 39.9167 -105.4740 270° West  Level FlightAware Approximate
11:32AM 39.9481 -105.3444 277° West 360 414 16,500  Level Denver Center
11:33AM 39.9594 -105.4853 276° West 364 419 18,400 1,800 Climbing Denver Center
11:34AM 39.9711 -105.6136 277° West 358 412 20,300 1,680 Climbing Denver Center
11:35AM 39.9736 -105.7528 271° West 361 415 21,900 1,440 Climbing Denver Center
11:36AM 39.9711 -105.8803 269° West 357 411 23,300 1,380 Climbing Denver Center
11:37AM 39.9800 -106.0164 275° West 377 434 24,800 1,200 Climbing Denver Center
11:38AM 39.9872 -106.1556 274° West 385 443 25,900 1,080 Climbing Denver Center
11:39AM 39.9972 -106.3286 274° West 400 460 27,100 1,020 Climbing Denver Center
11:40AM 40.0172 -106.4736 280° West 417 480 28,100 960 Climbing Denver Center
11:41AM 40.0694 -106.6028 298° West 420 483 29,100 960 Climbing Denver Center
11:42AM 40.1336 -106.7531 299° West 424 488 30,200 960 Climbing Denver Center
11:43AM 40.1878 -106.8817 299° West 421 484 31,200 960 Climbing Denver Center
11:44AM 40.2508 -107.0328 299° West 424 488 32,300 960 Climbing Denver Center
11:45AM 40.3064 -107.1628 299° West 428 493 33,300 960 Climbing Denver Center
11:46AM 40.3686 -107.3111 299° West 420 483 34,400 840 Climbing Denver Center
11:47AM 40.4219 -107.4383 299° West 417 480 35,300 960 Climbing Denver Center
11:48AM 40.4903 -107.6061 298° West 411 473 36,600 1,080 Climbing Denver Center
11:50AM 40.5428 -107.7289 299° West 405 466 37,600 660 Climbing Denver Center
11:51AM 40.6003 -107.8725 298° West 400 460 38,000 180 Climbing Denver Center
11:52AM 40.6519 -108.0000 298° West 411 473 38,000  Level Denver Center
11:53AM 40.7139 -108.1500 299° West 419 482 38,000  Level Denver Center
11:54AM 40.7700 -108.2897 298° West 418 481 38,000  Level Denver Center
11:55AM 40.8222 -108.4211 298° West 421 484 38,000  Level Denver Center
11:56AM 40.8819 -108.5714 298° West 415 478 38,000  Level Denver Center
11:57AM 40.9344 -108.7014 298° West 418 481 38,000  Level Denver Center
11:58AM 41.0042 -108.8775 298° West 421 484 38,000  Level Denver Center
11:58AM 41.0128 -108.8997 297° West 420 483 38,000  Level Salt Lake Center
11:59AM 41.0728 -109.0528 298° West 418 481 38,000  Level Salt Lake Center
12:00PM 41.1325 -109.2075 297° West 418 481 38,000  Level Salt Lake Center
12:01PM 41.1847 -109.3408 298° West 421 484 38,000  Level Salt Lake Center
12:02PM 41.2356 -109.4733 297° West 418 481 38,000  Level Salt Lake Center
12:03PM 41.2950 -109.6269 297° West 417 480 38,000  Level Salt Lake Center
12:04PM 41.3456 -109.7583 297° West 416 479 38,000  Level Salt Lake Center
12:06PM 41.4044 -109.9111 297° West 414 476 38,000  Level Salt Lake Center
12:07PM 41.4544 -110.0414 297° West 413 475 38,000  Level Salt Lake Center
12:08PM 41.5119 -110.1953 297° West 415 478 38,000  Level Salt Lake Center
12:09PM 41.5619 -110.3261 297° West 414 476 38,000  Level Salt Lake Center
12:10PM 41.6111 -110.4594 296° West 416 479 38,000  Level Salt Lake Center
12:11PM 41.6706 -110.6144 297° West 419 482 38,000  Level Salt Lake Center
12:12PM 41.7197 -110.7464 297° West 416 479 38,000  Level Salt Lake Center
12:13PM 41.7769 -110.9011 296° West 414 476 38,000  Level Salt Lake Center
12:14PM 41.8247 -111.0322 296° West 416 479 38,000  Level Salt Lake Center
12:15PM 41.8756 -111.1692 297° West 414 476 38,000  Level Salt Lake Center
12:16PM 41.9358 -111.3358 296° West 417 480 38,000  Level Salt Lake Center
12:17PM 41.9858 -111.4744 296° West 416 479 38,000  Level Salt Lake Center
12:18PM 42.0367 -111.6144 296° West 417 480 38,000  Level Salt Lake Center
12:19PM 42.0869 -111.7544 296° West 419 482 38,000  Level Salt Lake Center
12:20PM 42.1361 -111.8953 295° West 419 482 38,000  Level Salt Lake Center
12:21PM 42.1958 -112.0628 296° West 417 480 38,000  Level Salt Lake Center
12:22PM 42.2458 -112.2036 296° West 417 480 38,000  Level Salt Lake Center
12:23PM 42.2958 -112.3458 295° West 421 484 38,000  Level Salt Lake Center
12:24PM 42.3461 -112.4867 296° West 420 483 38,000  Level Salt Lake Center
12:25PM 42.3953 -112.6292 295° West 421 484 38,000  Level Salt Lake Center
12:26PM 42.4450 -112.7722 295° West 421 484 38,000  Level Salt Lake Center
12:27PM 42.5039 -112.9450 295° West 424 488 38,000  Level Salt Lake Center
12:28PM 42.5536 -113.0900 295° West 425 489 38,000  Level Salt Lake Center
12:29PM 42.6017 -113.2322 295° West 419 482 38,000  Level Salt Lake Center
12:30PM 42.6514 -113.3742 296° West 417 480 38,000  Level Salt Lake Center
12:31PM 42.7042 -113.5336 294° West 424 488 38,000  Level Salt Lake Center
12:32PM 42.7514 -113.6733 295° West 425 489 38,000  Level Salt Lake Center
12:33PM 42.8053 -113.8358 294° West 423 487 38,000  Level Salt Lake Center
12:34PM 42.8536 -113.9908 293° West 428 493 38,000  Level Salt Lake Center
12:35PM 42.9017 -114.1381 294° West 426 490 38,000 -1,200 Level Salt Lake Center
12:37PM 42.9592 -114.3028 296° West 435 501 35,600 -2,460 Descending Salt Lake Center
12:38PM 43.0044 -114.4425 294° West 419 482 33,000 -2,520 Descending Salt Lake Center
12:39PM 43.0475 -114.5767 294° West 404 465 30,500 -2,520 Descending Salt Lake Center
12:40PM 43.0967 -114.7328 293° West 398 458 27,800 -2,520 Descending Salt Lake Center
12:41PM 43.1378 -114.8614 294° West 387 445 25,400 -2,520 Descending Salt Lake Center
12:42PM 43.1842 -115.0069 294° West 376 433 22,600 -2,640 Descending Salt Lake Center
12:43PM 43.2253 -115.1375 293° West 368 423 20,000 -2,520 Descending Salt Lake Center
12:44PM 43.2664 -115.2658 294° West 354 407 17,400 -2,520 Descending Salt Lake Center
12:45PM 43.3053 -115.3883 294° West 341 392 14,800 -2,160 Descending Salt Lake Center
12:46PM 43.3428 -115.5089 293° West 324 373 13,000 -900 Descending Salt Lake Center
12:47PM 43.3781 -115.6225 293° West 317 365 13,000 -720 Level Salt Lake Center
12:48PM 43.4122 -115.7333 293° West 325 374 11,600 -1,260 Descending Salt Lake Center
12:49PM 43.4464 -115.8444 293° West 303 349 10,400 -1,080 Descending Salt Lake Center
12:50PM 43.4736 -115.9433 291° West 270 311 9,500 -1,560 Descending Salt Lake Center
12:51PM 43.4997 -116.0258 294° West 229 264 7,300 -2,040 Descending Salt Lake Center
12:52PM 43.5233 -116.1042 293° West 214 246 5,400 -1,740 Descending Salt Lake Center
12:53PM 43.5419 -116.1578 296° West 170 196 3,800 -1,560 Descending Salt Lake Center
12:55PM 43.5500 -116.2167 289° West  Level FlightAware Approximate
01:02PM 43.5644 -116.2229 289° West  Level Estimated
01:03PM 43.5644 -116.2229 289° West  Level Estimated
01:04PM 43.5644 -116.2229 289° West  Level Estimated